Time;durP1;ratioP1;P1;durP2;ratioP2;P2;SDS_P1;SDS_P2;PMS_P1;PMS_P2;Temp;Humidity;BMP_temperature;BMP_pressure;BME280_temperature;BME280_humidity;BME280_pressure;Samples;Min_cycle;Max_cycle;Signal;HPM_P1;HPM_P2
2021/05/16 00:00:16;;;;;;;10.10;8.23;;;26.70;45.00;;;;;;5070170;28;20035;-57
2021/05/16 00:02:42;;;;;;;11.90;7.68;;;26.70;44.70;;;;;;5070597;28;20442;-57
2021/05/16 00:05:10;;;;;;;11.60;7.38;;;26.70;44.40;;;;;;5070377;28;20039;-57
2021/05/16 00:07:36;;;;;;;8.07;5.63;;;26.70;44.40;;;;;;5070595;28;20028;-56
2021/05/16 00:10:04;;;;;;;9.95;6.15;;;26.70;44.10;;;;;;5051910;28;20032;-56
2021/05/16 00:12:30;;;;;;;9.80;6.03;;;26.80;44.20;;;;;;5070619;28;20032;-56
2021/05/16 00:14:56;;;;;;;7.30;5.05;;;26.70;44.10;;;;;;5085719;28;20110;-57
2021/05/16 00:17:22;;;;;;;7.60;4.35;;;26.80;44.00;;;;;;5085999;28;20079;-58
2021/05/16 00:19:48;;;;;;;10.18;4.40;;;26.80;43.50;;;;;;5073751;28;20205;-58
2021/05/16 00:22:14;;;;;;;5.78;3.65;;;26.80;43.40;;;;;;5074150;28;20040;-57
2021/05/16 00:24:40;;;;;;;8.05;3.90;;;26.80;43.30;;;;;;5074219;28;20024;-57
2021/05/16 00:27:06;;;;;;;6.65;3.53;;;26.80;42.90;;;;;;5073938;28;20029;-57
2021/05/16 00:29:32;;;;;;;7.82;3.60;;;26.70;42.70;;;;;;5074412;28;20108;-57
2021/05/16 00:31:58;;;;;;;5.72;3.00;;;26.80;42.70;;;;;;5056352;28;20170;-58
2021/05/16 00:34:24;;;;;;;4.68;2.17;;;26.80;42.30;;;;;;5074252;28;20054;-58
2021/05/16 00:36:50;;;;;;;5.97;2.33;;;26.80;42.20;;;;;;5074548;28;20086;-58
2021/05/16 00:39:16;;;;;;;4.70;2.00;;;26.80;42.10;;;;;;5073962;28;20352;-58
2021/05/16 00:41:42;;;;;;;4.65;2.38;;;26.80;41.60;;;;;;5073436;28;20132;-58
2021/05/16 00:44:08;;;;;;;2.97;2.15;;;26.80;41.80;;;;;;5074103;28;20449;-57
2021/05/16 00:46:35;;;;;;;5.55;2.30;;;26.80;41.40;;;;;;5055823;28;20036;-56
2021/05/16 00:49:02;;;;;;;4.90;2.30;;;26.80;41.40;;;;;;5055793;28;20060;-57
2021/05/16 00:51:29;;;;;;;4.05;1.77;;;26.80;41.10;;;;;;5089390;28;20032;-58
2021/05/16 00:53:55;;;;;;;4.18;2.00;;;26.80;41.30;;;;;;5055785;28;20505;-57
2021/05/16 00:56:21;;;;;;;4.28;2.30;;;26.80;41.10;;;;;;5055800;28;20127;-57
2021/05/16 00:58:48;;;;;;;4.38;2.05;;;26.80;40.80;;;;;;5073955;28;20029;-57
2021/05/16 01:01:18;;;;;;;2.70;1.55;;;26.80;40.70;;;;;;5039001;28;20450;-57
2021/05/16 01:03:51;;;;;;;3.55;1.23;;;26.80;40.50;;;;;;5055309;28;20045;-57
2021/05/16 01:06:17;;;;;;;3.50;1.60;;;26.80;40.50;;;;;;5055228;28;20041;-58
2021/05/16 01:08:46;;;;;;;4.43;1.83;;;26.80;40.50;;;;;;5073323;28;20090;-57
2021/05/16 01:11:13;;;;;;;2.13;1.27;;;26.80;40.00;;;;;;5073093;28;20041;-58
2021/05/16 01:13:40;;;;;;;5.00;1.67;;;26.90;40.30;;;;;;5072865;28;20041;-57
2021/05/16 01:16:06;;;;;;;1.80;1.27;;;26.80;40.10;;;;;;5072784;28;20040;-57
2021/05/16 01:18:34;;;;;;;2.83;1.60;;;26.80;39.90;;;;;;5073297;28;20550;-57
2021/05/16 01:21:00;;;;;;;5.57;1.48;;;26.90;39.90;;;;;;5073541;28;20045;-57
2021/05/16 01:23:32;;;;;;;2.47;1.20;;;26.80;39.80;;;;;;5073506;28;20107;-57
2021/05/16 01:26:05;;;;;;;2.67;1.55;;;26.90;39.70;;;;;;5055465;28;20474;-57
2021/05/16 01:28:32;;;;;;;2.55;1.15;;;26.90;39.60;;;;;;5076715;28;20032;-57
2021/05/16 01:30:58;;;;;;;1.90;1.27;;;26.90;39.40;;;;;;5085258;28;20036;-58
2021/05/16 01:33:24;;;;;;;4.25;1.63;;;26.90;39.40;;;;;;5064473;28;20032;-57
2021/05/16 01:35:52;;;;;;;4.20;1.25;;;26.90;39.40;;;;;;5093512;28;20134;-57
2021/05/16 01:38:20;;;;;;;2.55;0.88;;;26.90;39.40;;;;;;5075594;28;20489;-58
2021/05/16 01:40:46;;;;;;;2.58;1.42;;;26.90;39.40;;;;;;5093387;28;20040;-49
2021/05/16 01:43:22;;;;;;;2.50;1.10;;;26.90;39.50;;;;;;5055299;28;20135;-49
2021/05/16 01:45:48;;;;;;;4.25;1.42;;;26.90;39.40;;;;;;5073646;28;20079;-49
2021/05/16 01:48:14;;;;;;;2.25;1.23;;;26.90;39.40;;;;;;5073886;28;20033;-49
2021/05/16 01:50:40;;;;;;;3.88;1.08;;;26.90;39.30;;;;;;5074172;28;20028;-49
2021/05/16 01:53:08;;;;;;;4.95;1.40;;;26.90;39.40;;;;;;5074411;28;20086;-49
2021/05/16 01:55:35;;;;;;;4.63;1.35;;;26.90;39.30;;;;;;5073976;28;20792;-49
2021/05/16 01:58:03;;;;;;;2.17;1.10;;;27.00;39.40;;;;;;5053891;28;20048;-49
2021/05/16 02:00:41;;;;;;;3.28;1.52;;;26.90;39.10;;;;;;5072523;28;20755;-48
2021/05/16 02:03:15;;;;;;;5.70;1.67;;;26.90;39.20;;;;;;5089308;28;20119;-48
2021/05/16 02:05:47;;;;;;;2.13;1.33;;;27.00;39.40;;;;;;5055983;28;20090;-49
2021/05/16 02:08:14;;;;;;;2.58;1.08;;;27.00;39.40;;;;;;5073526;28;20113;-49
2021/05/16 02:10:41;;;;;;;2.75;1.55;;;27.00;39.40;;;;;;5073662;28;20033;-49
2021/05/16 02:13:10;;;;;;;2.83;1.25;;;27.00;39.40;;;;;;5055256;28;20036;-49
2021/05/16 02:15:39;;;;;;;3.25;0.98;;;27.00;39.30;;;;;;5073154;28;20044;-50
2021/05/16 02:18:08;;;;;;;2.58;1.45;;;27.00;39.40;;;;;;5055580;28;20044;-50
2021/05/16 02:20:34;;;;;;;2.35;1.45;;;27.00;39.40;;;;;;5072987;28;20067;-50
2021/05/16 02:23:00;;;;;;;1.80;0.95;;;27.00;39.40;;;;;;5073229;28;20036;-49
2021/05/16 02:25:30;;;;;;;1.27;0.90;;;27.00;39.30;;;;;;5054960;28;20050;-49
2021/05/16 02:27:57;;;;;;;2.97;1.17;;;27.00;39.30;;;;;;5073197;28;20090;-49
2021/05/16 02:30:23;;;;;;;1.52;1.17;;;27.00;39.20;;;;;;5054864;28;20335;-48
2021/05/16 02:32:50;;;;;;;1.90;1.27;;;27.00;39.20;;;;;;5073108;28;20136;-47
2021/05/16 02:35:17;;;;;;;2.40;1.33;;;27.00;39.20;;;;;;5055165;28;20048;-48
2021/05/16 02:38:00;;;;;;;3.25;1.20;;;27.00;39.10;;;;;;5054661;28;20082;-48
2021/05/16 02:40:27;;;;;;;2.95;1.50;;;27.00;39.10;;;;;;5072955;28;20457;-47
2021/05/16 02:42:54;;;;;;;1.73;1.27;;;27.00;39.10;;;;;;5053908;28;20040;-47
2021/05/16 02:45:21;;;;;;;4.43;1.98;;;27.00;38.90;;;;;;5054483;28;20097;-48
2021/05/16 02:47:51;;;;;;;4.25;1.30;;;27.10;39.00;;;;;;5054844;28;20064;-48
2021/05/16 02:50:21;;;;;;;3.95;1.30;;;27.00;38.90;;;;;;5054603;28;20086;-48
2021/05/16 02:53:01;;;;;;;2.10;1.10;;;27.10;39.10;;;;;;5054260;28;20040;-48
2021/05/16 02:55:32;;;;;;;2.92;1.88;;;27.00;39.00;;;;;;5054740;28;20076;-49
2021/05/16 02:57:58;;;;;;;4.57;1.40;;;27.00;38.90;;;;;;5054714;28;20447;-49
2021/05/16 03:00:29;;;;;;;2.75;1.30;;;27.00;39.00;;;;;;5054334;28;20058;-49
2021/05/16 03:02:55;;;;;;;2.92;1.40;;;27.10;39.10;;;;;;5071671;28;20044;-48
2021/05/16 03:05:22;;;;;;;2.10;1.48;;;27.00;39.10;;;;;;5072649;28;20355;-49
2021/05/16 03:07:48;;;;;;;3.28;1.55;;;27.00;39.00;;;;;;5071769;28;20033;-58
2021/05/16 03:10:15;;;;;;;2.42;1.50;;;27.10;39.10;;;;;;5070981;28;20110;-57
2021/05/16 03:12:41;;;;;;;2.97;1.63;;;27.10;39.10;;;;;;5070492;28;20541;-57
2021/05/16 03:15:10;;;;;;;1.88;1.35;;;27.00;39.10;;;;;;5052250;28;20089;-57
2021/05/16 03:17:37;;;;;;;2.88;1.38;;;27.00;39.10;;;;;;5052366;28;20040;-58
2021/05/16 03:20:06;;;;;;;1.33;1.23;;;27.10;39.20;;;;;;5052609;28;20141;-57
2021/05/16 03:22:33;;;;;;;1.63;1.10;;;27.10;39.20;;;;;;5035985;28;20461;-57
2021/05/16 03:24:59;;;;;;;2.55;1.42;;;27.10;39.20;;;;;;5032959;28;20025;-57
2021/05/16 03:27:26;;;;;;;4.85;1.60;;;27.10;39.20;;;;;;5039800;28;20128;-57
2021/05/16 03:29:53;;;;;;;2.65;1.83;;;27.10;39.20;;;;;;5070469;28;20166;-57
2021/05/16 03:32:19;;;;;;;4.72;1.60;;;27.00;39.20;;;;;;5070529;28;20466;-58
2021/05/16 03:34:45;;;;;;;1.67;1.52;;;27.10;39.20;;;;;;5051881;28;20425;-57
2021/05/16 03:37:11;;;;;;;2.67;1.30;;;27.10;39.30;;;;;;5070586;28;20041;-57
2021/05/16 03:39:38;;;;;;;3.33;1.35;;;27.10;39.30;;;;;;5070427;28;20346;-57
2021/05/16 03:42:05;;;;;;;2.60;1.40;;;27.10;39.30;;;;;;5069966;28;20044;-57
2021/05/16 03:44:31;;;;;;;1.70;1.27;;;27.10;39.40;;;;;;5069875;28;20036;-57
2021/05/16 03:46:57;;;;;;;1.50;1.30;;;27.10;39.40;;;;;;5069788;28;20044;-57
2021/05/16 03:49:23;;;;;;;1.98;1.30;;;27.10;39.50;;;;;;5052196;28;20024;-57
2021/05/16 03:51:49;;;;;;;3.17;1.58;;;27.10;39.50;;;;;;5070254;28;20029;-57
2021/05/16 03:54:15;;;;;;;1.35;1.23;;;27.10;39.50;;;;;;5051736;28;20115;-56
2021/05/16 03:56:42;;;;;;;2.17;1.60;;;27.10;39.50;;;;;;5070538;28;20094;-57
2021/05/16 03:59:08;;;;;;;1.60;1.25;;;27.10;39.50;;;;;;5070166;28;20043;-57
2021/05/16 04:01:34;;;;;;;3.45;1.33;;;27.10;39.50;;;;;;5070145;28;20115;-58
2021/05/16 04:04:00;;;;;;;3.08;1.17;;;27.10;39.60;;;;;;5069920;28;20440;-57
2021/05/16 04:06:26;;;;;;;2.67;1.35;;;27.10;39.60;;;;;;5070046;28;20431;-57
2021/05/16 04:08:52;;;;;;;1.80;1.10;;;27.10;39.60;;;;;;5070074;28;20052;-57
2021/05/16 04:11:18;;;;;;;1.65;1.30;;;27.10;39.60;;;;;;5052063;28;20068;-56
2021/05/16 04:13:44;;;;;;;2.92;1.30;;;27.10;39.70;;;;;;5070264;28;20037;-57
2021/05/16 04:16:10;;;;;;;1.75;1.23;;;27.10;39.70;;;;;;5051268;28;20098;-57
2021/05/16 04:18:38;;;;;;;2.67;1.65;;;27.10;39.70;;;;;;5051724;28;20043;-57
2021/05/16 04:21:04;;;;;;;1.80;1.70;;;27.10;39.70;;;;;;5070344;28;20060;-57
2021/05/16 04:23:31;;;;;;;3.42;1.40;;;27.10;39.70;;;;;;5070069;28;20071;-58
2021/05/16 04:25:57;;;;;;;2.28;1.73;;;27.10;39.80;;;;;;5070080;28;20131;-58
2021/05/16 04:28:23;;;;;;;4.95;1.40;;;27.10;39.90;;;;;;5069570;28;20067;-57
2021/05/16 04:30:49;;;;;;;2.10;1.23;;;27.10;39.90;;;;;;5069481;28;20039;-57
2021/05/16 04:33:15;;;;;;;1.85;1.23;;;27.10;40.00;;;;;;5069786;28;20086;-57
2021/05/16 04:35:42;;;;;;;3.90;1.60;;;27.10;40.00;;;;;;5070175;28;20114;-58
2021/05/16 04:38:08;;;;;;;2.97;1.30;;;27.10;40.00;;;;;;5070101;28;20498;-57
2021/05/16 04:40:34;;;;;;;1.63;1.27;;;27.10;40.10;;;;;;5069763;28;20044;-57
2021/05/16 04:43:01;;;;;;;2.83;1.77;;;27.10;40.10;;;;;;5069613;28;20404;-57
2021/05/16 04:45:27;;;;;;;2.13;1.35;;;27.10;40.20;;;;;;5069755;28;20037;-57
2021/05/16 04:47:53;;;;;;;2.65;1.33;;;27.10;40.20;;;;;;5075618;28;20040;-57
2021/05/16 04:50:19;;;;;;;2.97;1.67;;;27.10;40.20;;;;;;5070239;28;20033;-57
2021/05/16 04:52:46;;;;;;;3.17;1.50;;;27.10;40.30;;;;;;5070174;28;20489;-57
2021/05/16 04:55:13;;;;;;;2.97;1.20;;;27.10;40.30;;;;;;5070169;28;20123;-57
2021/05/16 04:57:40;;;;;;;3.22;1.55;;;27.10;40.40;;;;;;5052354;28;20442;-58
2021/05/16 05:00:07;;;;;;;2.58;2.03;;;27.10;40.50;;;;;;5084725;28;20128;-57
2021/05/16 05:02:40;;;;;;;5.35;1.63;;;27.10;40.50;;;;;;5051646;28;20380;-58
2021/05/16 05:05:07;;;;;;;2.25;1.33;;;27.10;40.50;;;;;;5071641;28;20048;-57
2021/05/16 05:07:33;;;;;;;2.20;1.60;;;27.10;40.60;;;;;;5073299;28;20040;-57
2021/05/16 05:09:59;;;;;;;2.63;1.50;;;27.10;40.60;;;;;;5072892;28;20082;-59
2021/05/16 05:12:25;;;;;;;3.13;1.73;;;27.10;40.70;;;;;;5073305;28;20119;-57
2021/05/16 05:14:51;;;;;;;2.80;1.50;;;27.10;40.70;;;;;;5072936;28;20141;-57
2021/05/16 05:17:17;;;;;;;3.30;1.65;;;27.10;40.70;;;;;;5072534;28;20489;-57
2021/05/16 05:19:43;;;;;;;2.63;1.50;;;27.10;40.80;;;;;;5072833;28;20040;-57
2021/05/16 05:22:09;;;;;;;1.98;1.45;;;27.10;40.90;;;;;;5072220;28;20147;-57
2021/05/16 05:24:35;;;;;;;3.72;1.50;;;27.10;40.90;;;;;;5072885;28;20533;-56
2021/05/16 05:27:01;;;;;;;5.35;2.13;;;27.10;40.90;;;;;;5073124;28;20035;-56
2021/05/16 05:29:27;;;;;;;3.92;1.55;;;27.10;40.90;;;;;;5072914;28;20062;-57
2021/05/16 05:31:53;;;;;;;4.75;1.60;;;27.10;41.00;;;;;;5054474;28;20139;-57
2021/05/16 05:34:20;;;;;;;4.00;1.65;;;27.10;41.00;;;;;;5072729;28;20139;-57
2021/05/16 05:36:46;;;;;;;3.30;1.60;;;27.10;41.10;;;;;;5072468;28;20045;-49
2021/05/16 05:39:12;;;;;;;2.78;1.58;;;27.10;41.10;;;;;;5072933;28;20043;-49
2021/05/16 05:41:38;;;;;;;2.55;1.85;;;27.10;41.10;;;;;;5074141;28;20049;-49
2021/05/16 05:44:05;;;;;;;2.03;1.50;;;27.10;41.20;;;;;;5073788;28;20130;-49
2021/05/16 05:46:31;;;;;;;2.85;1.90;;;27.10;41.20;;;;;;5073914;28;20044;-49
2021/05/16 05:48:57;;;;;;;3.58;1.92;;;27.10;41.20;;;;;;5074200;28;20394;-48
2021/05/16 05:51:23;;;;;;;5.32;3.22;;;27.10;41.30;;;;;;5073575;28;20047;-49
2021/05/16 05:53:49;;;;;;;2.97;2.38;;;27.10;41.40;;;;;;5073953;28;20048;-49
2021/05/16 05:56:15;;;;;;;4.28;2.97;;;27.10;41.40;;;;;;5056167;28;20136;-49
2021/05/16 05:58:41;;;;;;;3.47;2.17;;;27.10;41.40;;;;;;5073916;28;20107;-49
2021/05/16 06:01:07;;;;;;;4.53;2.50;;;27.10;41.50;;;;;;5073661;28;20062;-49
2021/05/16 06:03:33;;;;;;;3.25;2.83;;;27.10;41.50;;;;;;5071738;28;20036;-49
2021/05/16 06:05:59;;;;;;;4.45;2.00;;;27.10;41.60;;;;;;5069474;28;20028;-49
2021/05/16 06:08:25;;;;;;;4.30;2.05;;;27.10;41.60;;;;;;5072122;28;20040;-49
2021/05/16 06:10:51;;;;;;;2.53;1.77;;;27.10;41.70;;;;;;5073324;28;20082;-49
2021/05/16 06:13:17;;;;;;;4.53;2.15;;;27.00;41.70;;;;;;5073141;28;20035;-49
2021/05/16 06:15:43;;;;;;;3.05;1.50;;;27.10;41.80;;;;;;5073723;28;20029;-49
2021/05/16 06:18:09;;;;;;;3.20;1.80;;;27.10;41.90;;;;;;5073171;28;20043;-49
2021/05/16 06:20:35;;;;;;;3.33;1.33;;;27.10;42.00;;;;;;5073166;28;20074;-49
2021/05/16 06:23:03;;;;;;;4.80;1.63;;;27.10;42.00;;;;;;5073283;28;20045;-49
2021/05/16 06:25:29;;;;;;;19.90;14.18;;;27.10;42.00;;;;;;5073075;28;20045;-49
2021/05/16 06:27:56;;;;;;;19.77;17.90;;;27.10;42.10;;;;;;5073070;28;20028;-48
2021/05/16 06:30:26;;;;;;;16.60;15.10;;;27.10;42.10;;;;;;5073250;28;20037;-48
2021/05/16 06:32:53;;;;;;;12.93;11.43;;;27.10;42.10;;;;;;5073069;28;20047;-48
2021/05/16 06:35:19;;;;;;;7.47;6.05;;;27.10;42.10;;;;;;5072680;28;20040;-49
2021/05/16 06:37:46;;;;;;;6.85;3.90;;;27.10;42.20;;;;;;5072449;28;20040;-49
2021/05/16 06:40:13;;;;;;;4.00;3.33;;;27.20;42.30;;;;;;5072600;28;20036;-49
2021/05/16 06:42:42;;;;;;;4.75;2.58;;;27.20;42.20;;;;;;5073537;28;20080;-49
2021/05/16 06:45:10;;;;;;;4.25;2.20;;;27.20;42.30;;;;;;5072434;28;20043;-49
2021/05/16 06:47:36;;;;;;;2.17;1.98;;;27.20;42.30;;;;;;5073615;28;20031;-49
2021/05/16 06:50:03;;;;;;;3.45;2.05;;;27.20;42.30;;;;;;5074765;28;20437;-49
2021/05/16 06:52:29;;;;;;;3.88;1.77;;;27.20;42.30;;;;;;5072029;28;20119;-49
2021/05/16 06:54:55;;;;;;;2.28;1.60;;;27.20;42.30;;;;;;5072226;28;20112;-49
2021/05/16 06:57:21;;;;;;;3.90;1.95;;;27.30;42.40;;;;;;5072469;28;20043;-48
2021/05/16 06:59:47;;;;;;;5.07;2.03;;;27.30;42.30;;;;;;5072385;28;20136;-48
2021/05/16 07:02:13;;;;;;;8.65;1.88;;;27.30;42.30;;;;;;5067691;28;20493;-49
2021/05/16 07:04:42;;;;;;;5.45;2.03;;;27.30;42.30;;;;;;5063361;28;20044;-48
2021/05/16 07:07:08;;;;;;;3.95;1.80;;;27.40;42.30;;;;;;5065921;28;20040;-48
2021/05/16 07:09:34;;;;;;;3.70;1.88;;;27.40;42.30;;;;;;5062432;28;20024;-48
2021/05/16 07:12:00;;;;;;;7.18;1.80;;;27.40;42.20;;;;;;5061399;28;20033;-49
2021/05/16 07:14:26;;;;;;;7.95;2.13;;;27.50;42.30;;;;;;5065759;28;20914;-48
2021/05/16 07:16:52;;;;;;;7.63;1.63;;;27.50;42.20;;;;;;5065255;28;20025;-48
2021/05/16 07:19:18;;;;;;;5.43;1.95;;;27.50;42.20;;;;;;5065164;28;20041;-56
2021/05/16 07:21:44;;;;;;;8.48;2.92;;;27.60;42.20;;;;;;5062085;28;20179;-56
2021/05/16 07:24:11;;;;;;;4.57;1.95;;;27.60;42.10;;;;;;5059275;28;20079;-55
2021/05/16 07:26:37;;;;;;;4.35;1.80;;;27.60;42.10;;;;;;5065935;28;20047;-56
2021/05/16 07:29:03;;;;;;;4.25;1.65;;;27.70;42.10;;;;;;5061749;28;20055;-56
2021/05/16 07:31:30;;;;;;;2.45;1.83;;;27.70;42.00;;;;;;5063931;28;20124;-56
2021/05/16 07:33:56;;;;;;;3.03;1.75;;;27.70;42.00;;;;;;5057392;28;20425;-56
2021/05/16 07:36:22;;;;;;;4.93;1.80;;;27.70;41.80;;;;;;5045461;28;20052;-57
2021/05/16 07:38:47;;;;;;;3.42;1.60;;;27.80;41.90;;;;;;5059285;28;20037;-57
2021/05/16 07:41:14;;;;;;;2.75;1.73;;;27.80;41.80;;;;;;5063564;28;20076;-56
2021/05/16 07:43:41;;;;;;;3.55;1.75;;;27.90;41.90;;;;;;5064777;28;20048;-55
2021/05/16 07:46:07;;;;;;;5.13;1.83;;;27.90;41.80;;;;;;5070309;28;20044;-56
2021/05/16 07:48:33;;;;;;;3.17;1.80;;;27.90;41.80;;;;;;5070452;28;20074;-55
2021/05/16 07:51:02;;;;;;;3.30;1.90;;;28.00;41.70;;;;;;5065479;28;20028;-55
2021/05/16 07:53:29;;;;;;;5.40;1.40;;;28.00;41.70;;;;;;5052060;28;20044;-55
2021/05/16 07:55:55;;;;;;;2.67;1.58;;;28.00;41.60;;;;;;5070363;28;20510;-55
2021/05/16 07:58:21;;;;;;;2.55;1.90;;;28.00;41.60;;;;;;5069861;28;20071;-55
2021/05/16 08:00:47;;;;;;;4.85;1.52;;;28.10;41.50;;;;;;5061878;28;20044;-55
2021/05/16 08:03:14;;;;;;;2.00;1.67;;;28.10;41.50;;;;;;5065922;28;20046;-55
2021/05/16 08:05:40;;;;;;;1.73;1.50;;;28.10;41.40;;;;;;5070063;28;20032;-55
2021/05/16 08:08:06;;;;;;;2.45;1.80;;;28.20;41.50;;;;;;5070656;28;20055;-55
2021/05/16 08:10:32;;;;;;;1.58;1.27;;;28.20;41.40;;;;;;5070424;28;20039;-55
2021/05/16 08:12:58;;;;;;;4.13;2.17;;;28.20;41.30;;;;;;5070583;28;20041;-55
2021/05/16 08:15:25;;;;;;;2.45;2.03;;;28.30;41.30;;;;;;5070377;28;20068;-55
2021/05/16 08:17:52;;;;;;;2.13;1.67;;;28.30;41.30;;;;;;5070275;28;20028;-55
2021/05/16 08:20:19;;;;;;;5.30;2.20;;;28.30;41.20;;;;;;5070534;28;20064;-55
2021/05/16 08:22:45;;;;;;;9.88;8.85;;;28.40;41.30;;;;;;5060447;28;20098;-55
2021/05/16 08:25:12;;;;;;;10.27;9.25;;;28.40;41.30;;;;;;5067058;28;20111;-55
2021/05/16 08:27:42;;;;;;;8.80;6.97;;;28.40;41.30;;;;;;5069472;28;20202;-55
2021/05/16 08:30:10;;;;;;;7.72;6.65;;;28.50;41.30;;;;;;5070033;28;20115;-56
2021/05/16 08:32:36;;;;;;;5.35;4.80;;;28.50;41.30;;;;;;5070403;28;20039;-56
2021/05/16 08:35:03;;;;;;;5.10;3.65;;;28.60;41.30;;;;;;5070315;28;20036;-56
2021/05/16 08:37:29;;;;;;;3.85;3.08;;;28.60;41.20;;;;;;5070248;28;20501;-56
2021/05/16 08:39:55;;;;;;;5.93;3.03;;;28.60;41.20;;;;;;5071988;28;20120;-56
2021/05/16 08:42:21;;;;;;;3.88;2.30;;;28.70;41.20;;;;;;5055792;28;20550;-56
2021/05/16 08:44:47;;;;;;;4.00;2.40;;;28.70;41.10;;;;;;5056119;28;20041;-57
2021/05/16 08:47:14;;;;;;;3.40;2.75;;;28.80;41.10;;;;;;5073914;28;20037;-57
2021/05/16 08:49:41;;;;;;;3.72;2.22;;;28.80;41.00;;;;;;5065538;28;20421;-48
2021/05/16 08:52:07;;;;;;;10.43;2.10;;;28.80;40.90;;;;;;5054350;28;20111;-49
2021/05/16 08:54:33;;;;;;;4.18;1.92;;;28.80;40.80;;;;;;5054734;28;20478;-49
2021/05/16 08:56:59;;;;;;;5.40;1.90;;;28.90;40.70;;;;;;5054430;28;20688;-49
2021/05/16 08:59:26;;;;;;;4.05;2.00;;;28.90;40.50;;;;;;5054522;28;20498;-48
2021/05/16 09:01:55;;;;;;;3.53;2.00;;;29.00;40.50;;;;;;5040808;28;20565;-48
2021/05/16 09:04:30;;;;;;;4.15;3.83;;;29.00;40.30;;;;;;5055721;28;20120;-48
2021/05/16 09:06:57;;;;;;;5.90;5.28;;;29.00;40.30;;;;;;5055267;28;20406;-55
2021/05/16 09:09:30;;;;;;;9.15;6.15;;;29.10;40.30;;;;;;5072243;28;20455;-55
2021/05/16 09:12:01;;;;;;;6.57;3.90;;;29.10;40.10;;;;;;5053504;28;20140;-55
2021/05/16 09:14:47;;;;;;;3.83;3.42;;;29.20;40.20;;;;;;5073451;28;20047;-55
2021/05/16 09:17:26;;;;;;;5.05;3.05;;;29.20;40.10;;;;;;5055051;28;20033;-55
2021/05/16 09:19:57;;;;;;;3.33;2.37;;;29.30;40.00;;;;;;5073805;28;20116;-48
2021/05/16 09:22:35;;;;;;;15.38;13.80;;;29.30;39.70;;;;;;5074100;28;20041;-48
2021/05/16 09:25:25;;;;;;;10.25;7.70;;;29.30;39.40;;;;;;5073765;28;20036;-49
2021/05/16 09:27:54;;;;;;;9.13;7.28;;;29.40;39.50;;;;;;5073745;28;20032;-51
2021/05/16 09:30:20;;;;;;;5.75;5.03;;;29.50;39.60;;;;;;5074115;28;20471;-50
2021/05/16 09:32:51;;;;;;;3.90;3.50;;;29.50;39.50;;;;;;5064358;28;20040;-50
2021/05/16 09:35:17;;;;;;;5.85;3.33;;;29.50;39.20;;;;;;5055693;28;20102;-50
2021/05/16 09:38:02;;;;;;;3.20;2.45;;;29.60;39.30;;;;;;5063598;28;20036;-50
2021/05/16 09:40:34;;;;;;;4.50;1.98;;;29.60;39.00;;;;;;5068924;28;20470;-50
2021/05/16 09:43:25;;;;;;;2.08;1.33;;;29.60;38.80;;;;;;5072337;28;20478;-50
2021/05/16 09:45:52;;;;;;;3.80;1.75;;;29.70;38.80;;;;;;5073098;28;20107;-50
2021/05/16 09:48:29;;;;;;;4.13;1.77;;;29.70;38.80;;;;;;5073496;28;20052;-50
2021/05/16 09:51:12;;;;;;;3.00;1.60;;;29.80;38.70;;;;;;5072429;28;20487;-50
2021/05/16 09:53:56;;;;;;;8.25;6.35;;;29.70;38.60;;;;;;5073397;28;20036;-51
2021/05/16 09:56:23;;;;;;;22.73;20.45;;;29.80;38.70;;;;;;5055412;28;20055;-51
2021/05/16 09:58:54;;;;;;;22.55;20.45;;;29.80;38.50;;;;;;5073295;28;20036;-50
2021/05/16 10:01:22;;;;;;;13.32;12.05;;;29.90;38.30;;;;;;5073292;28;20516;-50
2021/05/16 10:03:49;;;;;;;15.40;14.00;;;29.90;37.90;;;;;;5073091;28;20082;-51
2021/05/16 10:06:20;;;;;;;10.48;9.40;;;30.00;38.20;;;;;;5073396;28;20341;-50
2021/05/16 10:08:50;;;;;;;7.20;6.50;;;30.00;38.00;;;;;;5073340;28;20454;-51
2021/05/16 10:11:30;;;;;;;4.50;3.10;;;30.00;38.00;;;;;;5073376;28;20031;-50
2021/05/16 10:14:16;;;;;;;3.45;1.70;;;30.10;39.00;;;;;;5073076;28;20037;-50
2021/05/16 10:16:46;;;;;;;2.55;1.75;;;30.10;40.10;;;;;;5072875;28;20036;-51
2021/05/16 10:19:21;;;;;;;3.10;1.42;;;30.20;40.40;;;;;;5072877;28;20133;-51
2021/05/16 10:22:07;;;;;;;0.88;0.80;;;30.20;41.50;;;;;;5072951;28;20509;-50
2021/05/16 10:24:50;;;;;;;1.60;1.10;;;30.10;42.30;;;;;;5041372;28;20119;-49
2021/05/16 10:27:23;;;;;;;1.98;0.80;;;30.10;42.30;;;;;;5072860;28;20110;-50
2021/05/16 10:30:16;;;;;;;0.68;0.60;;;30.10;42.60;;;;;;5072858;28;20093;-50
2021/05/16 10:32:50;;;;;;;1.92;0.57;;;30.10;43.00;;;;;;5070071;28;20131;-50
2021/05/16 10:35:17;;;;;;;1.83;1.02;;;30.00;43.60;;;;;;5072670;28;20112;-49
2021/05/16 10:37:54;;;;;;;2.55;0.85;;;29.90;43.60;;;;;;5072713;28;20041;-50
2021/05/16 10:40:20;;;;;;;1.25;0.60;;;29.80;44.50;;;;;;5072368;28;20378;-50
2021/05/16 10:42:47;;;;;;;9.50;7.68;;;29.60;44.10;;;;;;5072293;28;20044;-50
2021/05/16 10:45:18;;;;;;;9.88;8.93;;;29.50;44.30;;;;;;5072388;28;20032;-50
2021/05/16 10:47:53;;;;;;;13.65;12.35;;;29.40;44.50;;;;;;5072372;28;20471;-50
2021/05/16 10:50:25;;;;;;;13.63;12.43;;;29.40;44.70;;;;;;5072172;28;20029;-50
2021/05/16 10:53:08;;;;;;;11.35;10.30;;;29.30;44.60;;;;;;5072367;28;20662;-50
2021/05/16 10:55:36;;;;;;;7.50;6.72;;;29.20;44.80;;;;;;5072461;28;20379;-49
2021/05/16 10:58:03;;;;;;;6.13;5.53;;;29.20;44.90;;;;;;5072266;28;20112;-50
2021/05/16 11:00:32;;;;;;;7.22;6.55;;;29.30;45.00;;;;;;5071994;28;20462;-50
2021/05/16 11:03:13;;;;;;;6.63;5.93;;;29.20;45.00;;;;;;5071787;28;20064;-50
2021/05/16 11:05:53;;;;;;;5.85;4.95;;;29.20;45.00;;;;;;5071983;28;20546;-50
2021/05/16 11:08:19;;;;;;;3.47;2.83;;;29.20;45.40;;;;;;5054000;28;20091;-50
2021/05/16 11:10:52;;;;;;;5.30;2.88;;;29.20;45.40;;;;;;5071936;28;20135;-50
2021/05/16 11:13:29;;;;;;;4.10;2.10;;;29.20;45.90;;;;;;5072033;28;20045;-50
2021/05/16 11:16:05;;;;;;;2.75;2.30;;;29.20;46.30;;;;;;5054102;28;20063;-49
2021/05/16 11:18:31;;;;;;;2.60;2.40;;;29.20;45.70;;;;;;5057451;28;20040;-49
2021/05/16 11:20:59;;;;;;;2.28;1.60;;;29.20;45.90;;;;;;5066893;28;20048;-49
2021/05/16 11:23:27;;;;;;;3.22;2.92;;;29.20;45.80;;;;;;5052081;28;20485;-50
2021/05/16 11:25:57;;;;;;;17.30;9.68;;;29.20;45.60;;;;;;5051768;28;20043;-50
2021/05/16 11:28:24;;;;;;;6.88;6.22;;;29.20;46.00;;;;;;5034076;28;20060;-50
2021/05/16 11:30:51;;;;;;;6.65;4.00;;;29.20;45.70;;;;;;5051531;28;20063;-50
2021/05/16 11:33:28;;;;;;;4.45;2.47;;;29.20;46.00;;;;;;5050704;28;20128;-50
2021/05/16 11:35:55;;;;;;;7.07;2.20;;;29.20;45.90;;;;;;5049767;28;20049;-50
2021/05/16 11:38:25;;;;;;;4.00;1.77;;;29.20;45.60;;;;;;5049814;28;20119;-51
2021/05/16 11:40:53;;;;;;;2.22;1.95;;;29.20;45.70;;;;;;5049708;28;20040;-51
2021/05/16 11:43:30;;;;;;;2.50;1.83;;;29.20;45.50;;;;;;5049452;28;20053;-50
2021/05/16 11:45:57;;;;;;;2.80;2.00;;;29.20;45.80;;;;;;5049378;28;20033;-50
2021/05/16 11:48:33;;;;;;;2.40;1.80;;;29.20;45.50;;;;;;5049903;28;20040;-50
2021/05/16 11:51:05;;;;;;;3.72;2.00;;;29.20;45.50;;;;;;5049711;28;20060;-50
2021/05/16 11:53:33;;;;;;;7.45;2.55;;;29.20;45.40;;;;;;5049698;28;20041;-51
2021/05/16 11:56:35;;;;;;;6.60;3.25;;;29.30;45.30;;;;;;5049454;28;20102;-51
2021/05/16 11:59:03;;;;;;;2.40;2.17;;;29.30;45.20;;;;;;4929560;29;20102;-51
2021/05/16 12:01:36;;;;;;;4.97;2.30;;;29.30;45.10;;;;;;4929637;29;20048;-50
2021/05/16 12:04:05;;;;;;;5.00;2.50;;;29.30;44.90;;;;;;4913783;29;20055;-51
2021/05/16 12:06:40;;;;;;;7.10;2.67;;;29.30;45.10;;;;;;4929689;29;20118;-50
2021/05/16 12:09:10;;;;;;;6.20;2.30;;;29.40;45.10;;;;;;4930123;29;20079;-51
2021/05/16 12:11:37;;;;;;;11.07;3.07;;;29.40;45.00;;;;;;4929952;29;20047;-51
2021/05/16 12:14:15;;;;;;;7.38;2.22;;;29.40;45.10;;;;;;4930269;29;20494;-50
2021/05/16 12:16:50;;;;;;;4.43;3.30;;;29.40;44.80;;;;;;4933671;29;20050;-51
2021/05/16 12:19:26;;;;;;;6.18;3.35;;;29.40;45.20;;;;;;4934025;29;20067;-50
2021/05/16 12:21:58;;;;;;;4.47;3.13;;;29.40;44.50;;;;;;4933776;29;20111;-50
2021/05/16 12:24:31;;;;;;;5.63;2.60;;;29.50;44.60;;;;;;4918032;29;20055;-50
2021/05/16 12:26:58;;;;;;;2.40;1.90;;;29.50;44.30;;;;;;4933373;29;20118;-50
2021/05/16 12:29:25;;;;;;;6.57;3.05;;;29.50;44.20;;;;;;4933792;29;20553;-50
2021/05/16 12:31:51;;;;;;;4.32;2.85;;;29.50;44.30;;;;;;4921353;28;20052;-51
2021/05/16 12:34:22;;;;;;;4.43;2.78;;;29.50;44.10;;;;;;5053324;28;20049;-51
2021/05/16 12:36:49;;;;;;;3.55;2.60;;;29.50;44.20;;;;;;5053065;28;20044;-50
2021/05/16 12:39:35;;;;;;;5.15;2.47;;;29.60;44.30;;;;;;5035199;28;20510;-50
2021/05/16 12:42:02;;;;;;;5.07;2.60;;;29.50;44.20;;;;;;5052616;28;20053;-51
2021/05/16 12:44:29;;;;;;;3.38;2.67;;;29.60;44.30;;;;;;5052990;28;20056;-50
2021/05/16 12:46:57;;;;;;;4.63;3.00;;;29.70;44.30;;;;;;5053339;28;20065;-51
2021/05/16 12:49:27;;;;;;;4.18;3.00;;;29.70;44.30;;;;;;5053144;28;20339;-50
2021/05/16 12:51:57;;;;;;;;;;;29.70;44.40;;;;;;5053083;28;20041;-51